Time;durP1;ratioP1;P1;durP2;ratioP2;P2;SDS_P1;SDS_P2;PMS_P1;PMS_P2;Temp;Humidity;BMP_temperature;BMP_pressure;BME280_temperature;BME280_humidity;BME280_pressure;Samples;Min_cycle;Max_cycle;Signal;HPM_P1;HPM_P2
2021/04/22 00:02:07;;;;;;;20.00;3.83;;;5.60;62.80;;;;;;5013533;28;20041;-59
2021/04/22 00:04:33;;;;;;;18.80;3.57;;;5.60;62.90;;;;;;5030920;28;20037;-59
2021/04/22 00:06:59;;;;;;;20.93;3.50;;;5.60;62.90;;;;;;5030235;28;20133;-59
2021/04/22 00:09:24;;;;;;;23.27;4.03;;;5.50;62.80;;;;;;5031058;28;20041;-59
2021/04/22 00:11:50;;;;;;;20.13;3.23;;;5.50;63.00;;;;;;5013377;28;20057;-60
2021/04/22 00:14:16;;;;;;;19.87;3.53;;;5.50;63.30;;;;;;5030628;28;20042;-59
2021/04/22 00:16:42;;;;;;;16.63;3.47;;;5.50;63.70;;;;;;5013150;28;20124;-59
2021/04/22 00:19:08;;;;;;;21.40;3.80;;;5.50;63.90;;;;;;5030208;28;20039;-59
2021/04/22 00:21:34;;;;;;;22.43;3.80;;;5.50;63.80;;;;;;5030953;28;20482;-59
2021/04/22 00:24:00;;;;;;;20.53;3.87;;;5.50;63.80;;;;;;5030667;28;20038;-59
2021/04/22 00:26:26;;;;;;;20.53;3.57;;;5.50;64.10;;;;;;5029870;28;20452;-59
2021/04/22 00:28:52;;;;;;;18.60;3.50;;;5.50;64.30;;;;;;4996082;28;20056;-59
2021/04/22 00:31:18;;;;;;;18.27;3.57;;;5.50;64.40;;;;;;5029598;28;20120;-60
2021/04/22 00:33:43;;;;;;;19.07;3.67;;;5.50;64.30;;;;;;5030778;28;20049;-59
2021/04/22 00:36:09;;;;;;;19.60;3.53;;;5.40;64.50;;;;;;5013202;28;20034;-59
2021/04/22 00:38:35;;;;;;;18.73;4.13;;;5.40;64.60;;;;;;5030001;28;20041;-59
2021/04/22 00:41:02;;;;;;;17.03;4.00;;;5.40;64.70;;;;;;5030719;28;20041;-60
2021/04/22 00:43:28;;;;;;;19.87;3.50;;;5.40;64.80;;;;;;5013103;28;20382;-58
2021/04/22 00:45:53;;;;;;;18.33;3.17;;;5.40;64.80;;;;;;5012862;28;20401;-59
2021/04/22 00:48:24;;;;;;;18.37;3.67;;;5.40;64.80;;;;;;5012798;28;20037;-59
2021/04/22 00:50:58;;;;;;;16.50;3.23;;;5.40;64.80;;;;;;5030234;28;20034;-59
2021/04/22 00:53:25;;;;;;;18.93;3.17;;;5.40;65.10;;;;;;5030629;28;20548;-59
2021/04/22 00:55:55;;;;;;;23.83;3.70;;;5.40;65.10;;;;;;5029952;28;20033;-60
2021/04/22 00:58:21;;;;;;;16.43;3.20;;;5.40;65.30;;;;;;5030345;28;20120;-62
2021/04/22 01:00:55;;;;;;;15.43;3.30;;;5.40;65.30;;;;;;5016029;28;20543;-60
2021/04/22 01:03:22;;;;;;;18.73;3.13;;;5.30;65.40;;;;;;5033880;28;20175;-59
2021/04/22 01:05:52;;;;;;;15.63;3.67;;;5.30;65.30;;;;;;5016531;28;20516;-59
2021/04/22 01:08:18;;;;;;;19.43;3.87;;;5.30;65.30;;;;;;5033348;28;20049;-60
2021/04/22 01:10:44;;;;;;;16.17;3.33;;;5.30;65.40;;;;;;5016428;28;20379;-60
2021/04/22 01:13:10;;;;;;;19.20;3.70;;;5.30;65.60;;;;;;5013885;28;20092;-59
2021/04/22 01:15:36;;;;;;;20.80;3.27;;;5.30;65.70;;;;;;5033478;28;20041;-59
2021/04/22 01:18:04;;;;;;;19.43;3.23;;;5.30;65.70;;;;;;5016050;28;20053;-59
2021/04/22 01:20:37;;;;;;;18.33;3.80;;;5.30;65.60;;;;;;5032965;28;20485;-59
2021/04/22 01:23:04;;;;;;;19.63;3.40;;;5.30;65.80;;;;;;5017179;28;20064;-59
2021/04/22 01:25:33;;;;;;;21.93;3.53;;;5.30;66.00;;;;;;5033235;28;20128;-60
2021/04/22 01:28:01;;;;;;;17.77;3.43;;;5.30;65.70;;;;;;5015871;28;20037;-59
2021/04/22 01:30:56;;;;;;;20.27;3.47;;;5.30;65.80;;;;;;4999788;28;20143;-59
2021/04/22 01:33:27;;;;;;;25.30;3.70;;;5.30;65.90;;;;;;5033187;28;20099;-58
2021/04/22 01:35:56;;;;;;;18.25;3.20;;;5.30;66.10;;;;;;5016013;28;20037;-59
2021/04/22 01:38:23;;;;;;;21.40;3.63;;;5.40;66.30;;;;;;5017706;28;20111;-63
2021/04/22 01:40:50;;;;;;;13.97;3.20;;;5.50;66.20;;;;;;5018798;28;20120;-59
2021/04/22 01:43:15;;;;;;;16.00;3.00;;;5.50;66.20;;;;;;5032959;28;20502;-60
2021/04/22 01:45:41;;;;;;;22.30;3.67;;;5.60;66.30;;;;;;5033159;28;20073;-59
2021/04/22 01:48:07;;;;;;;23.97;3.33;;;5.70;66.30;;;;;;5033208;28;20037;-59
2021/04/22 01:50:35;;;;;;;25.70;3.40;;;5.80;66.30;;;;;;5032772;28;20091;-60
2021/04/22 01:53:01;;;;;;;20.10;3.23;;;5.90;66.10;;;;;;5033178;28;20037;-59
2021/04/22 01:55:29;;;;;;;13.00;2.80;;;6.00;65.90;;;;;;5032626;28;20037;-60
2021/04/22 01:57:55;;;;;;;16.47;3.43;;;6.10;65.70;;;;;;5015179;28;20065;-59
2021/04/22 02:00:31;;;;;;;18.70;3.47;;;6.20;65.70;;;;;;4999639;28;20057;-59
2021/04/22 02:02:57;;;;;;;17.27;3.30;;;6.20;65.50;;;;;;4999451;28;22754;-59
2021/04/22 02:05:23;;;;;;;21.87;3.17;;;6.30;65.30;;;;;;5034134;28;20064;-59
2021/04/22 02:07:49;;;;;;;17.77;3.60;;;6.30;65.10;;;;;;5016399;28;20132;-59
2021/04/22 02:10:15;;;;;;;16.37;2.97;;;6.30;64.90;;;;;;5016883;28;20453;-58
2021/04/22 02:12:41;;;;;;;17.13;2.97;;;6.40;64.80;;;;;;5034785;28;20042;-65
2021/04/22 02:15:11;;;;;;;18.77;2.80;;;6.40;64.60;;;;;;5035241;28;20084;-61
2021/04/22 02:17:37;;;;;;;14.83;2.60;;;6.40;64.50;;;;;;5017345;28;20149;-61
2021/04/22 02:20:08;;;;;;;16.07;3.20;;;6.50;64.50;;;;;;5033696;28;20068;-61
2021/04/22 02:22:34;;;;;;;19.40;3.03;;;6.50;64.40;;;;;;5015562;28;20042;-61
2021/04/22 02:25:00;;;;;;;15.37;3.20;;;6.50;64.20;;;;;;5015169;28;20045;-62
2021/04/22 02:27:26;;;;;;;18.30;3.40;;;6.60;64.20;;;;;;5031695;28;20045;-62
2021/04/22 02:29:51;;;;;;;16.57;3.00;;;6.60;64.10;;;;;;5015137;28;20145;-62
2021/04/22 02:32:17;;;;;;;21.10;3.30;;;6.60;64.00;;;;;;5032149;28;20041;-62
2021/04/22 02:34:42;;;;;;;17.00;2.80;;;6.60;63.90;;;;;;5032559;28;20638;-62
2021/04/22 02:37:08;;;;;;;17.90;3.87;;;6.60;63.70;;;;;;5032005;28;20048;-63
2021/04/22 02:39:34;;;;;;;17.30;2.80;;;6.70;63.70;;;;;;5032153;28;20046;-62
2021/04/22 02:41:59;;;;;;;16.50;3.50;;;6.60;63.50;;;;;;5032518;28;20038;-62
2021/04/22 02:44:25;;;;;;;15.13;2.80;;;6.70;63.40;;;;;;5032053;28;20125;-61
2021/04/22 02:46:51;;;;;;;15.90;2.80;;;6.70;63.30;;;;;;5032128;28;20068;-62
2021/04/22 02:49:16;;;;;;;19.03;3.03;;;6.70;63.10;;;;;;5032148;28;20038;-62
2021/04/22 02:51:42;;;;;;;15.43;2.80;;;6.70;63.00;;;;;;5031825;28;20034;-62
2021/04/22 02:54:08;;;;;;;14.87;2.67;;;6.70;62.80;;;;;;5014418;28;20036;-63
2021/04/22 02:56:33;;;;;;;17.13;2.87;;;6.70;62.80;;;;;;5032001;28;20041;-62
2021/04/22 02:58:59;;;;;;;15.87;2.90;;;6.70;62.60;;;;;;5031217;28;20029;-63
2021/04/22 03:01:25;;;;;;;16.00;2.93;;;6.70;62.50;;;;;;5014404;28;20060;-62
2021/04/22 03:03:50;;;;;;;14.40;2.80;;;6.70;62.20;;;;;;5031554;28;20038;-62
2021/04/22 03:06:16;;;;;;;14.50;3.00;;;6.70;62.20;;;;;;5031662;28;20054;-62
2021/04/22 03:08:42;;;;;;;16.67;2.80;;;6.70;62.10;;;;;;5031626;28;20060;-63
2021/04/22 03:11:07;;;;;;;15.80;2.90;;;6.70;62.10;;;;;;5031335;28;20025;-62
2021/04/22 03:13:33;;;;;;;14.30;2.93;;;6.80;62.10;;;;;;5031706;28;20508;-63
2021/04/22 03:15:59;;;;;;;18.53;3.00;;;6.80;62.00;;;;;;5031783;28;20032;-62
2021/04/22 03:18:24;;;;;;;15.80;2.80;;;6.80;61.90;;;;;;5030977;28;20397;-61
2021/04/22 03:20:50;;;;;;;19.40;2.90;;;6.80;61.80;;;;;;5031698;28;20482;-62
2021/04/22 03:23:16;;;;;;;18.97;2.57;;;6.80;61.90;;;;;;5030458;28;20048;-62
2021/04/22 03:25:41;;;;;;;17.47;3.10;;;6.80;62.00;;;;;;5031479;28;20041;-62
2021/04/22 03:28:08;;;;;;;14.50;2.27;;;6.80;62.00;;;;;;5031387;28;20037;-62
2021/04/22 03:30:34;;;;;;;17.67;3.20;;;6.80;62.00;;;;;;5030820;28;20091;-62
2021/04/22 03:33:01;;;;;;;15.13;3.17;;;6.80;62.00;;;;;;5013991;28;20047;-63
2021/04/22 03:35:27;;;;;;;14.60;2.80;;;6.80;62.10;;;;;;5030985;28;20063;-62
2021/04/22 03:37:53;;;;;;;17.80;3.07;;;6.80;62.10;;;;;;5031022;28;20053;-63
2021/04/22 03:40:21;;;;;;;15.97;2.77;;;6.80;62.10;;;;;;5031349;28;20048;-62
2021/04/22 03:42:47;;;;;;;14.03;2.70;;;6.80;62.10;;;;;;5013086;28;20033;-62
2021/04/22 03:45:13;;;;;;;16.37;2.80;;;6.80;62.10;;;;;;4997099;28;20048;-63
2021/04/22 03:47:40;;;;;;;12.67;2.73;;;6.90;62.20;;;;;;5012306;28;20042;-61
2021/04/22 03:50:08;;;;;;;11.20;2.10;;;6.90;62.00;;;;;;5013812;28;20038;-63
2021/04/22 03:52:33;;;;;;;22.33;2.80;;;6.90;62.00;;;;;;5031261;28;20042;-64
2021/04/22 03:54:59;;;;;;;14.47;2.50;;;6.90;62.00;;;;;;5030563;28;20048;-62
2021/04/22 03:57:25;;;;;;;16.03;3.00;;;6.90;62.00;;;;;;4996668;28;20633;-63
2021/04/22 03:59:51;;;;;;;18.77;2.83;;;6.90;62.00;;;;;;5030635;28;20037;-62
2021/04/22 04:02:18;;;;;;;16.93;3.07;;;6.90;61.90;;;;;;5030952;28;20045;-63
2021/04/22 04:04:44;;;;;;;14.50;2.73;;;6.90;62.10;;;;;;5013437;28;20041;-63
2021/04/22 04:07:10;;;;;;;21.00;3.93;;;7.00;62.20;;;;;;4996151;28;20520;-63
2021/04/22 04:09:35;;;;;;;18.40;3.03;;;7.00;62.30;;;;;;4997233;28;20064;-64
2021/04/22 04:12:01;;;;;;;13.93;3.00;;;7.00;62.50;;;;;;4981042;28;20113;-63
2021/04/22 04:14:27;;;;;;;18.27;3.10;;;7.00;62.60;;;;;;5013024;28;20034;-62
2021/04/22 04:16:53;;;;;;;17.37;2.70;;;7.00;62.80;;;;;;5030695;28;20034;-63
2021/04/22 04:19:18;;;;;;;16.23;2.87;;;7.00;62.80;;;;;;5030382;28;20457;-62
2021/04/22 04:21:44;;;;;;;17.07;2.90;;;7.00;63.00;;;;;;5030951;28;20478;-63
2021/04/22 04:24:10;;;;;;;22.13;3.07;;;7.00;63.20;;;;;;5013610;28;20033;-63
2021/04/22 04:26:35;;;;;;;16.40;3.43;;;7.00;63.30;;;;;;5013146;28;20045;-78
2021/04/22 04:29:01;;;;;;;21.97;3.77;;;7.00;63.30;;;;;;5033524;28;20038;-67
2021/04/22 04:31:27;;;;;;;15.23;2.83;;;7.00;63.40;;;;;;5032866;28;20120;-67
2021/04/22 04:33:52;;;;;;;18.83;3.47;;;7.00;63.80;;;;;;5032286;28;20061;-63
2021/04/22 04:36:18;;;;;;;19.07;3.50;;;7.00;63.90;;;;;;5034784;28;20037;-64
2021/04/22 04:38:44;;;;;;;18.50;3.13;;;7.00;63.90;;;;;;5033447;28;20447;-62
2021/04/22 04:41:09;;;;;;;18.27;3.33;;;7.10;64.10;;;;;;5017077;28;20025;-63
2021/04/22 04:43:35;;;;;;;15.60;3.30;;;7.10;64.20;;;;;;5033185;28;20025;-63
2021/04/22 04:46:01;;;;;;;20.53;3.17;;;7.10;64.30;;;;;;5014283;28;20045;-64
2021/04/22 04:48:26;;;;;;;18.20;3.00;;;7.10;64.30;;;;;;5033936;28;20034;-63
2021/04/22 04:50:52;;;;;;;24.47;3.50;;;7.20;64.40;;;;;;5016452;28;20042;-62
2021/04/22 04:53:18;;;;;;;21.27;3.50;;;7.20;64.40;;;;;;5034312;28;20037;-62
2021/04/22 04:55:43;;;;;;;14.97;3.10;;;7.30;64.50;;;;;;5034291;28;20017;-63
2021/04/22 04:58:09;;;;;;;20.40;3.70;;;7.30;64.40;;;;;;5033283;28;20405;-62
2021/04/22 05:00:35;;;;;;;17.90;3.97;;;7.30;64.30;;;;;;5034233;28;20036;-64
2021/04/22 05:03:00;;;;;;;20.53;3.40;;;7.30;64.50;;;;;;5034109;28;20041;-63
2021/04/22 05:05:26;;;;;;;22.13;3.30;;;7.40;64.60;;;;;;5015918;28;20120;-62
2021/04/22 05:07:52;;;;;;;24.67;3.63;;;7.40;64.60;;;;;;5033867;28;20037;-64
2021/04/22 05:10:17;;;;;;;19.80;3.33;;;7.40;64.80;;;;;;5033703;28;20490;-62
2021/04/22 05:12:43;;;;;;;24.83;3.50;;;7.40;64.90;;;;;;5034050;28;20048;-64
2021/04/22 05:15:10;;;;;;;21.50;3.23;;;7.40;64.90;;;;;;5016519;28;20095;-63
2021/04/22 05:17:35;;;;;;;18.77;3.20;;;7.50;65.10;;;;;;5015613;28;20044;-62
2021/04/22 05:20:04;;;;;;;16.17;3.30;;;7.50;65.10;;;;;;5033786;28;20029;-63
2021/04/22 05:22:30;;;;;;;19.40;3.27;;;7.60;64.90;;;;;;5016305;28;20041;-63
2021/04/22 05:24:55;;;;;;;18.97;2.93;;;7.60;64.90;;;;;;5033049;28;20052;-63
2021/04/22 05:27:21;;;;;;;12.27;2.87;;;7.60;64.80;;;;;;5033457;28;20099;-63
2021/04/22 05:29:47;;;;;;;17.03;2.80;;;7.70;64.90;;;;;;5015735;28;20041;-62
2021/04/22 05:32:13;;;;;;;14.93;2.87;;;7.70;64.80;;;;;;5033960;28;20044;-64
2021/04/22 05:34:38;;;;;;;16.83;2.90;;;7.80;64.60;;;;;;5033549;28;20041;-64
2021/04/22 05:37:04;;;;;;;17.07;3.00;;;7.80;64.40;;;;;;5032259;28;20048;-63
2021/04/22 05:39:31;;;;;;;12.97;2.90;;;7.80;64.00;;;;;;5033845;28;20656;-62
2021/04/22 05:41:58;;;;;;;19.80;3.13;;;7.80;63.90;;;;;;5033014;28;20070;-63
2021/04/22 05:44:25;;;;;;;18.90;2.83;;;7.80;64.10;;;;;;5015863;28;20108;-63
2021/04/22 05:46:51;;;;;;;16.90;3.10;;;7.90;63.90;;;;;;5032792;28;20493;-60
2021/04/22 05:49:16;;;;;;;16.00;3.00;;;7.80;63.70;;;;;;5014729;28;20117;-59
2021/04/22 05:51:42;;;;;;;19.43;3.30;;;7.80;63.50;;;;;;5033232;28;20131;-60
2021/04/22 05:54:09;;;;;;;15.13;2.67;;;7.80;63.80;;;;;;5015758;28;20030;-60
2021/04/22 05:56:35;;;;;;;18.43;3.00;;;7.80;63.90;;;;;;5014625;28;20053;-60
2021/04/22 05:59:01;;;;;;;19.13;3.00;;;7.80;64.00;;;;;;5033102;28;20053;-60
2021/04/22 06:01:27;;;;;;;19.33;3.10;;;7.90;64.20;;;;;;5032779;28;20038;-60
2021/04/22 06:03:53;;;;;;;13.93;3.00;;;8.00;64.00;;;;;;5033127;28;20044;-60
2021/04/22 06:06:18;;;;;;;16.60;2.87;;;8.20;64.20;;;;;;5033000;28;20068;-60
2021/04/22 06:08:46;;;;;;;15.30;2.80;;;8.40;64.10;;;;;;5014429;28;20041;-59
2021/04/22 06:11:12;;;;;;;17.17;2.93;;;8.50;63.60;;;;;;5014236;28;20045;-59
2021/04/22 06:13:38;;;;;;;21.93;3.30;;;8.60;62.90;;;;;;4997096;28;20064;-62
2021/04/22 06:16:04;;;;;;;13.27;2.70;;;8.70;63.00;;;;;;5013606;28;20064;-60
2021/04/22 06:18:30;;;;;;;16.93;3.47;;;8.90;63.20;;;;;;5030413;28;20041;-60
2021/04/22 06:20:55;;;;;;;17.33;3.40;;;9.10;62.60;;;;;;5012956;28;20096;-61
2021/04/22 06:23:21;;;;;;;15.73;3.33;;;9.10;62.60;;;;;;4997098;28;20049;-60
2021/04/22 06:25:47;;;;;;;21.50;3.30;;;9.20;62.10;;;;;;5030810;28;20068;-60
2021/04/22 06:28:13;;;;;;;17.03;2.87;;;9.30;61.70;;;;;;5010958;28;20430;-61
2021/04/22 06:30:38;;;;;;;16.13;3.30;;;9.20;60.90;;;;;;5013356;28;20516;-60
2021/04/22 06:33:04;;;;;;;16.67;3.37;;;9.10;60.80;;;;;;5031187;28;20110;-60
2021/04/22 06:35:30;;;;;;;19.50;2.90;;;9.00;61.10;;;;;;5031476;28;20127;-60
2021/04/22 06:37:56;;;;;;;19.30;3.13;;;9.00;61.10;;;;;;5013654;28;20486;-61
2021/04/22 06:40:23;;;;;;;20.40;3.13;;;9.00;61.60;;;;;;5031212;28;20124;-60
2021/04/22 06:42:50;;;;;;;16.10;2.90;;;9.30;62.20;;;;;;5013898;28;20076;-60
2021/04/22 06:45:16;;;;;;;15.97;3.97;;;9.70;62.40;;;;;;5031187;28;20782;-60
2021/04/22 06:47:43;;;;;;;19.87;3.53;;;10.00;61.30;;;;;;5031441;28;20049;-60
2021/04/22 06:50:12;;;;;;;18.07;3.17;;;10.30;61.10;;;;;;5032189;28;20037;-60
2021/04/22 06:52:38;;;;;;;17.27;3.03;;;10.40;59.70;;;;;;5014070;28;20030;-60
2021/04/22 06:55:11;;;;;;;19.73;3.77;;;10.40;59.50;;;;;;5032363;28;20482;-60
2021/04/22 06:57:37;;;;;;;17.08;4.00;;;10.60;60.30;;;;;;5029692;28;20498;-61
2021/04/22 07:00:09;;;;;;;18.08;3.17;;;10.90;60.00;;;;;;5032659;28;20091;-63
2021/04/22 07:02:35;;;;;;;14.07;2.67;;;11.30;59.60;;;;;;5034147;28;20548;-62
2021/04/22 07:05:01;;;;;;;13.48;3.47;;;11.90;60.80;;;;;;5031958;28;20065;-62
2021/04/22 07:07:27;;;;;;;13.75;2.55;;;12.90;60.50;;;;;;5038692;28;20061;-62
2021/04/22 07:09:53;;;;;;;15.80;3.22;;;13.70;59.90;;;;;;5041820;28;20063;-61
2021/04/22 07:12:18;;;;;;;13.50;3.08;;;13.90;56.10;;;;;;5045056;28;20588;-61
2021/04/22 07:14:44;;;;;;;15.77;2.95;;;13.80;54.80;;;;;;5053614;28;20382;-61
2021/04/22 07:17:10;;;;;;;15.13;2.75;;;13.50;53.30;;;;;;5051892;28;20048;-61
2021/04/22 07:19:38;;;;;;;14.52;2.90;;;13.20;52.70;;;;;;5054940;28;20049;-62
2021/04/22 07:22:05;;;;;;;12.80;2.80;;;13.60;55.10;;;;;;5051402;28;20493;-61
2021/04/22 07:24:31;;;;;;;10.85;2.70;;;14.40;54.90;;;;;;5033441;28;20079;-63
2021/04/22 07:27:00;;;;;;;14.63;3.10;;;15.10;53.50;;;;;;5032034;28;20040;-60
2021/04/22 07:29:27;;;;;;;14.50;2.85;;;15.80;51.90;;;;;;5014350;28;20053;-61
2021/04/22 07:31:53;;;;;;;12.05;2.75;;;16.30;50.90;;;;;;5050006;28;20558;-61
2021/04/22 07:34:18;;;;;;;14.50;2.70;;;16.70;49.60;;;;;;5049463;28;20029;-61
2021/04/22 07:36:45;;;;;;;14.15;3.15;;;17.50;49.50;;;;;;5031861;28;20041;-61
2021/04/22 07:39:11;;;;;;;14.70;3.00;;;17.60;46.30;;;;;;5031545;28;20397;-61
2021/04/22 07:41:37;;;;;;;9.80;2.50;;;17.70;46.30;;;;;;5049316;28;20029;-61
2021/04/22 07:44:04;;;;;;;10.30;2.70;;;18.40;45.80;;;;;;5049718;28;20147;-61
2021/04/22 07:46:30;;;;;;;11.13;2.58;;;18.10;43.00;;;;;;5048906;28;20528;-62
2021/04/22 07:48:56;;;;;;;13.75;2.92;;;17.60;42.00;;;;;;5049306;28;20511;-61
2021/04/22 07:51:22;;;;;;;11.40;2.88;;;16.90;40.30;;;;;;5049609;28;20148;-62
2021/04/22 07:53:48;;;;;;;14.82;2.30;;;16.30;41.70;;;;;;5049248;28;20056;-61
2021/04/22 07:56:14;;;;;;;10.02;2.60;;;16.40;42.20;;;;;;5050127;28;20041;-61
2021/04/22 07:58:40;;;;;;;12.13;2.55;;;16.40;41.90;;;;;;5050444;28;20039;-62
2021/04/22 08:01:07;;;;;;;9.93;2.50;;;17.20;43.30;;;;;;5050446;28;20029;-61
2021/04/22 08:03:33;;;;;;;11.18;2.60;;;18.80;42.70;;;;;;5050834;28;20033;-61
2021/04/22 08:05:59;;;;;;;13.32;2.65;;;20.20;40.90;;;;;;5050091;28;20052;-61
2021/04/22 08:08:25;;;;;;;14.18;2.80;;;20.90;39.10;;;;;;5052093;28;20467;-61
2021/04/22 08:10:53;;;;;;;14.50;2.60;;;21.80;38.70;;;;;;5057152;28;20033;-61
2021/04/22 08:13:20;;;;;;;10.27;2.35;;;22.20;35.40;;;;;;5057086;28;20083;-61
2021/04/22 08:15:49;;;;;;;13.38;2.67;;;21.50;34.90;;;;;;5057170;28;20032;-62
2021/04/22 08:18:16;;;;;;;15.52;3.08;;;21.10;33.60;;;;;;5038326;28;20036;-61
2021/04/22 08:20:43;;;;;;;12.43;2.88;;;20.40;33.50;;;;;;5057471;28;20063;-61
2021/04/22 08:23:10;;;;;;;8.95;2.22;;;19.40;33.50;;;;;;5056924;28;20652;-61
2021/04/22 08:25:40;;;;;;;10.88;3.17;;;19.10;34.80;;;;;;5056711;28;20040;-61
2021/04/22 08:28:08;;;;;;;;;;;19.00;34.90;;;;;;5039044;28;20051;-59
2021/04/22 08:30:43;;;;;;;13.25;2.60;;;18.80;34.10;;;;;;5056622;28;19913;-59
2021/04/22 08:33:12;;;;;;;12.10;3.17;;;18.20;33.80;;;;;;5057036;28;20456;-61
2021/04/22 08:35:38;;;;;;;10.13;2.42;;;17.90;34.50;;;;;;5038330;28;20164;-61
2021/04/22 08:38:05;;;;;;;12.73;2.47;;;17.90;34.90;;;;;;5036027;28;20051;-61
2021/04/22 08:40:31;;;;;;;14.60;3.10;;;17.80;34.50;;;;;;5037134;28;20060;-61
2021/04/22 08:42:57;;;;;;;11.00;2.70;;;17.60;34.10;;;;;;5036009;28;20044;-61
2021/04/22 08:45:24;;;;;;;12.85;3.00;;;17.00;33.70;;;;;;5035766;28;20038;-61
2021/04/22 08:47:51;;;;;;;12.25;2.97;;;16.90;35.40;;;;;;5034709;28;20049;-61
2021/04/22 08:50:23;;;;;;;11.38;2.75;;;17.20;35.30;;;;;;5018841;28;20496;-61
2021/04/22 08:52:52;;;;;;;9.88;2.75;;;17.90;35.40;;;;;;5040620;28;20405;-60
2021/04/22 08:55:22;;;;;;;10.25;2.60;;;18.30;34.00;;;;;;5035923;28;20034;-60
2021/04/22 08:57:49;;;;;;;11.20;2.93;;;18.70;34.30;;;;;;5016373;28;20060;-60
2021/04/22 09:00:19;;;;;;;10.75;2.67;;;19.00;33.50;;;;;;5036338;28;20509;-60
2021/04/22 09:02:45;;;;;;;9.35;2.53;;;18.70;32.50;;;;;;5036743;28;20034;-59
2021/04/22 09:05:14;;;;;;;10.98;2.72;;;18.80;33.60;;;;;;5035668;28;20037;-60
2021/04/22 09:07:41;;;;;;;13.82;2.90;;;19.40;33.20;;;;;;5034951;28;20022;-60
2021/04/22 09:10:10;;;;;;;14.02;3.10;;;20.30;33.50;;;;;;5036618;28;20490;-59
2021/04/22 09:12:37;;;;;;;10.73;2.70;;;21.20;32.60;;;;;;5018615;28;20516;-59
2021/04/22 09:15:10;;;;;;;13.40;2.75;;;20.80;30.60;;;;;;5018952;28;20042;-60
2021/04/22 09:17:37;;;;;;;12.52;3.22;;;19.70;30.00;;;;;;5017424;28;20128;-59
2021/04/22 09:20:07;;;;;;;12.75;3.50;;;18.70;30.80;;;;;;5034462;28;20033;-59
2021/04/22 09:22:41;;;;;;;12.45;2.97;;;18.10;32.20;;;;;;5032940;28;20037;-60
2021/04/22 09:25:24;;;;;;;13.60;3.10;;;18.20;33.30;;;;;;5033336;28;20049;-59
2021/04/22 09:27:55;;;;;;;13.93;2.80;;;18.80;33.30;;;;;;5016644;28;20029;-60
2021/04/22 09:30:50;;;;;;;11.90;2.92;;;19.70;33.60;;;;;;5022298;28;20715;-60
2021/04/22 09:33:22;;;;;;;11.00;2.70;;;20.60;32.40;;;;;;5042181;28;20092;-60
2021/04/22 09:35:48;;;;;;;10.32;3.10;;;20.00;30.40;;;;;;5041035;28;20371;-60
2021/04/22 09:38:15;;;;;;;10.98;3.17;;;18.80;30.00;;;;;;5038706;28;20037;-60
2021/04/22 09:40:44;;;;;;;12.60;3.45;;;17.50;30.20;;;;;;5043109;28;20038;-59
2021/04/22 09:43:14;;;;;;;13.98;3.50;;;16.50;32.70;;;;;;5038970;28;20577;-62
2021/04/22 09:45:45;;;;;;;10.98;3.10;;;16.60;34.30;;;;;;5035667;28;20040;-59
2021/04/22 09:48:21;;;;;;;14.80;3.55;;;17.90;35.40;;;;;;5032204;28;20403;-60
2021/04/22 09:50:48;;;;;;;10.90;3.15;;;19.30;34.30;;;;;;5021063;28;20041;-61
2021/04/22 09:53:16;;;;;;;13.27;3.20;;;20.60;33.10;;;;;;5039943;28;20041;-62
2021/04/22 09:55:44;;;;;;;11.75;3.05;;;21.90;31.70;;;;;;5034835;28;20045;-63
2021/04/22 09:58:10;;;;;;;11.23;2.83;;;23.40;31.30;;;;;;5038349;28;20032;-63
2021/04/22 10:00:37;;;;;;;9.38;2.40;;;23.50;29.30;;;;;;5042231;28;20128;-63
2021/04/22 10:03:09;;;;;;;12.57;3.05;;;22.40;28.30;;;;;;5034620;28;20029;-61
2021/04/22 10:05:38;;;;;;;12.15;2.63;;;21.40;29.00;;;;;;5006046;28;20043;-62
2021/04/22 10:08:08;;;;;;;13.32;3.30;;;21.10;29.40;;;;;;5038067;28;20022;-62
2021/04/22 10:10:36;;;;;;;11.75;2.47;;;21.10;29.40;;;;;;4998973;28;20061;-62
2021/04/22 10:13:05;;;;;;;11.68;2.75;;;22.50;30.70;;;;;;5038250;28;20041;-63
2021/04/22 10:15:32;;;;;;;10.25;2.60;;;25.20;29.80;;;;;;5041296;28;20037;-62
2021/04/22 10:18:04;;;;;;;10.20;3.58;;;25.70;27.80;;;;;;5021047;28;20052;-62
2021/04/22 10:20:32;;;;;;;10.82;2.47;;;24.30;26.10;;;;;;5042181;28;20040;-62
2021/04/22 10:22:59;;;;;;;9.95;2.80;;;22.50;26.80;;;;;;5038942;28;20094;-62
2021/04/22 10:25:28;;;;;;;9.27;2.40;;;23.00;28.70;;;;;;5039302;28;20116;-63
2021/04/22 10:28:11;;;;;;;11.15;3.28;;;25.30;28.90;;;;;;5022836;28;20041;-63
2021/04/22 10:30:41;;;;;;;7.68;2.70;;;27.80;27.90;;;;;;5039217;28;20044;-63
2021/04/22 10:33:07;;;;;;;10.80;3.03;;;28.30;26.10;;;;;;5039480;28;20037;-62
2021/04/22 10:35:36;;;;;;;9.82;2.58;;;27.30;24.70;;;;;;5040515;28;20580;-62
2021/04/22 10:38:04;;;;;;;15.18;3.03;;;26.00;24.50;;;;;;5019838;28;20127;-62
2021/04/22 10:40:39;;;;;;;11.55;2.85;;;24.30;24.50;;;;;;5032754;28;20046;-62
2021/04/22 10:43:07;;;;;;;12.38;3.05;;;22.50;25.20;;;;;;5030115;28;20030;-60
2021/04/22 10:45:37;;;;;;;12.00;3.30;;;20.90;26.00;;;;;;5031808;28;20446;-61
2021/04/22 10:48:04;;;;;;;10.00;2.75;;;19.60;27.10;;;;;;5031194;28;20464;-61
2021/04/22 10:50:35;;;;;;;8.30;2.33;;;19.70;29.00;;;;;;5014387;28;20387;-61
2021/04/22 10:53:07;;;;;;;10.25;2.50;;;22.10;30.50;;;;;;5031523;28;20055;-61
2021/04/22 10:55:35;;;;;;;11.60;2.70;;;22.90;27.70;;;;;;5031747;28;20045;-61
2021/04/22 10:58:19;;;;;;;7.88;2.33;;;21.70;26.20;;;;;;5013062;28;20034;-62
2021/04/22 11:00:49;;;;;;;9.35;2.40;;;20.30;27.20;;;;;;4997169;28;20057;-61
2021/04/22 11:03:32;;;;;;;10.60;2.45;;;21.10;29.60;;;;;;5013151;28;20124;-61
2021/04/22 11:06:00;;;;;;;8.95;2.35;;;21.00;27.10;;;;;;5031269;28;20065;-60
2021/04/22 11:08:39;;;;;;;9.98;2.90;;;20.00;26.90;;;;;;5030751;28;20456;-61
2021/04/22 11:11:28;;;;;;;10.98;2.97;;;18.90;27.20;;;;;;5013546;28;20521;-62
2021/04/22 11:14:15;;;;;;;9.43;3.17;;;17.80;28.00;;;;;;5031202;28;20375;-62
2021/04/22 11:16:46;;;;;;;10.00;2.70;;;17.10;29.30;;;;;;5013374;28;20038;-63
2021/04/22 11:19:36;;;;;;;11.18;3.33;;;17.00;30.00;;;;;;5014284;28;20033;-62
2021/04/22 11:22:25;;;;;;;10.25;3.20;;;16.60;30.20;;;;;;5001883;28;20080;-62
2021/04/22 11:24:54;;;;;;;8.57;2.83;;;16.10;30.50;;;;;;5030649;28;20057;-63
2021/04/22 11:27:21;;;;;;;11.00;3.28;;;15.60;31.20;;;;;;5031071;28;20095;-62
2021/04/22 11:29:49;;;;;;;11.05;3.38;;;14.90;32.10;;;;;;5031351;28;20128;-62
2021/04/22 11:32:20;;;;;;;10.57;3.03;;;14.50;33.40;;;;;;5030839;28;20045;-62
2021/04/22 11:34:48;;;;;;;7.88;2.80;;;14.20;34.20;;;;;;5031309;28;20057;-62
2021/04/22 11:37:17;;;;;;;12.18;3.30;;;14.00;34.80;;;;;;5012823;28;20033;-62
2021/04/22 11:39:43;;;;;;;10.00;2.97;;;13.80;35.40;;;;;;5040377;28;20436;-62
2021/04/22 11:42:09;;;;;;;11.85;2.95;;;13.60;36.10;;;;;;5032334;28;20386;-62
2021/04/22 11:44:35;;;;;;;10.57;2.72;;;13.50;37.10;;;;;;5050414;28;20405;-62
2021/04/22 11:47:29;;;;;;;9.48;2.70;;;13.80;37.70;;;;;;5051234;28;20136;-61
2021/04/22 11:50:11;;;;;;;8.68;2.60;;;14.40;38.00;;;;;;5016706;28;20044;-61
2021/04/22 11:52:44;;;;;;;9.02;2.85;;;14.80;37.00;;;;;;5051281;28;20033;-61
2021/04/22 11:55:37;;;;;;;9.00;3.00;;;14.80;36.20;;;;;;5040773;28;20064;-63
2021/04/22 11:58:26;;;;;;;9.60;2.95;;;14.70;36.30;;;;;;5017204;28;20513;-63
2021/04/22 12:01:00;;;;;;;11.35;3.20;;;14.50;36.30;;;;;;5029434;28;20048;-63
2021/04/22 12:03:33;;;;;;;12.40;3.05;;;14.10;36.60;;;;;;5030448;28;20037;-63
2021/04/22 12:06:08;;;;;;;12.65;3.35;;;13.90;37.40;;;;;;5025520;28;20037;-64
2021/04/22 12:08:41;;;;;;;10.18;3.33;;;13.70;38.30;;;;;;5008865;28;20121;-64
2021/04/22 12:11:13;;;;;;;10.23;3.40;;;13.70;39.00;;;;;;5008035;28;20087;-64
2021/04/22 12:13:40;;;;;;;11.85;3.45;;;13.70;39.00;;;;;;5003970;28;20511;-62
2021/04/22 12:16:08;;;;;;;11.40;3.63;;;13.70;39.30;;;;;;5004856;28;20093;-63
2021/04/22 12:18:38;;;;;;;10.02;3.38;;;13.90;40.10;;;;;;5006800;28;20038;-64
2021/04/22 12:21:24;;;;;;;10.65;3.20;;;14.10;40.00;;;;;;4985053;28;20045;-60
2021/04/22 12:23:59;;;;;;;13.27;3.25;;;14.10;40.00;;;;;;5012256;28;20103;-61
2021/04/22 12:26:32;;;;;;;10.18;2.95;;;14.20;40.00;;;;;;5009245;28;20144;-62
2021/04/22 12:29:04;;;;;;;8.73;3.25;;;14.10;39.90;;;;;;4990792;28;20030;-62
2021/04/22 12:31:40;;;;;;;9.82;3.35;;;14.00;39.90;;;;;;5024262;28;20057;-63
2021/04/22 12:34:15;;;;;;;12.93;3.63;;;14.00;40.40;;;;;;4961629;28;20030;-61
2021/04/22 12:37:06;;;;;;;9.15;3.30;;;14.10;40.80;;;;;;5004513;28;20125;-60
2021/04/22 12:39:58;;;;;;;9.00;3.47;;;14.30;40.80;;;;;;4988464;28;20037;-61
2021/04/22 12:42:29;;;;;;;11.00;3.58;;;14.30;40.30;;;;;;4956738;28;20421;-60
2021/04/22 12:45:07;;;;;;;11.85;3.85;;;14.40;40.60;;;;;;5000005;28;20068;-61
2021/04/22 12:48:03;;;;;;;12.75;3.47;;;14.70;40.90;;;;;;4993042;28;20065;-63
2021/04/22 12:50:42;;;;;;;10.85;3.38;;;15.20;41.00;;;;;;4995704;28;20056;-61